sensor_id;sensor_type;location;lat;lon;timestamp;P1;durP1;ratioP1;P2;durP2;ratioP2
74158;SDS011;62511;47.970;11.774;2024-02-21T00:01:16;1.25;;;0.65;;
74158;SDS011;62511;47.970;11.774;2024-02-21T00:03:42;2.03;;;1.13;;
74158;SDS011;62511;47.970;11.774;2024-02-21T00:06:09;1.48;;;0.73;;
74158;SDS011;62511;47.970;11.774;2024-02-21T00:08:35;1.80;;;0.70;;
74158;SDS011;62511;47.970;11.774;2024-02-21T00:11:01;2.15;;;0.93;;
74158;SDS011;62511;47.970;11.774;2024-02-21T00:13:27;2.55;;;0.70;;
74158;SDS011;62511;47.970;11.774;2024-02-21T00:15:54;1.02;;;0.70;;
74158;SDS011;62511;47.970;11.774;2024-02-21T00:18:20;3.92;;;1.20;;
74158;SDS011;62511;47.970;11.774;2024-02-21T00:20:46;1.52;;;1.00;;
74158;SDS011;62511;47.970;11.774;2024-02-21T00:23:12;3.42;;;0.70;;
74158;SDS011;62511;47.970;11.774;2024-02-21T00:25:39;3.15;;;1.02;;
74158;SDS011;62511;47.970;11.774;2024-02-21T00:28:05;1.80;;;1.02;;
74158;SDS011;62511;47.970;11.774;2024-02-21T00:30:31;1.23;;;0.57;;
74158;SDS011;62511;47.970;11.774;2024-02-21T00:32:58;1.15;;;0.90;;
74158;SDS011;62511;47.970;11.774;2024-02-21T00:35:24;0.88;;;0.68;;
74158;SDS011;62511;47.970;11.774;2024-02-21T00:37:50;1.45;;;0.90;;
74158;SDS011;62511;47.970;11.774;2024-02-21T00:40:17;0.88;;;0.50;;
74158;SDS011;62511;47.970;11.774;2024-02-21T00:42:45;1.40;;;0.70;;
74158;SDS011;62511;47.970;11.774;2024-02-21T00:45:12;1.25;;;0.80;;
74158;SDS011;62511;47.970;11.774;2024-02-21T00:47:38;1.98;;;0.68;;
74158;SDS011;62511;47.970;11.774;2024-02-21T00:50:05;3.42;;;1.00;;
74158;SDS011;62511;47.970;11.774;2024-02-21T00:52:33;2.88;;;0.93;;
74158;SDS011;62511;47.970;11.774;2024-02-21T00:54:59;1.08;;;1.00;;
74158;SDS011;62511;47.970;11.774;2024-02-21T00:57:26;2.40;;;0.68;;
74158;SDS011;62511;47.970;11.774;2024-02-21T00:59:52;1.95;;;0.80;;
74158;SDS011;62511;47.970;11.774;2024-02-21T01:02:19;1.27;;;0.60;;
74158;SDS011;62511;47.970;11.774;2024-02-21T01:04:45;1.02;;;0.65;;
74158;SDS011;62511;47.970;11.774;2024-02-21T01:07:12;1.17;;;0.82;;
74158;SDS011;62511;47.970;11.774;2024-02-21T01:09:38;2.30;;;0.80;;
74158;SDS011;62511;47.970;11.774;2024-02-21T01:12:04;1.20;;;0.77;;
74158;SDS011;62511;47.970;11.774;2024-02-21T01:14:30;0.98;;;0.80;;
74158;SDS011;62511;47.970;11.774;2024-02-21T01:16:57;1.33;;;0.63;;
74158;SDS011;62511;47.970;11.774;2024-02-21T01:19:23;0.82;;;0.63;;
74158;SDS011;62511;47.970;11.774;2024-02-21T01:21:50;0.93;;;0.52;;
74158;SDS011;62511;47.970;11.774;2024-02-21T01:24:16;0.88;;;0.70;;
74158;SDS011;62511;47.970;11.774;2024-02-21T01:26:42;0.85;;;0.57;;
74158;SDS011;62511;47.970;11.774;2024-02-21T01:29:10;1.58;;;0.80;;
74158;SDS011;62511;47.970;11.774;2024-02-21T01:31:36;1.50;;;0.88;;
74158;SDS011;62511;47.970;11.774;2024-02-21T01:34:02;0.50;;;0.50;;
74158;SDS011;62511;47.970;11.774;2024-02-21T01:36:29;1.60;;;0.75;;
74158;SDS011;62511;47.970;11.774;2024-02-21T01:38:55;1.23;;;0.80;;
74158;SDS011;62511;47.970;11.774;2024-02-21T01:41:21;3.03;;;0.55;;
74158;SDS011;62511;47.970;11.774;2024-02-21T01:43:47;2.88;;;0.85;;
74158;SDS011;62511;47.970;11.774;2024-02-21T01:46:14;1.48;;;0.73;;
74158;SDS011;62511;47.970;11.774;2024-02-21T01:48:40;1.15;;;0.40;;
74158;SDS011;62511;47.970;11.774;2024-02-21T01:51:06;0.73;;;0.60;;
74158;SDS011;62511;47.970;11.774;2024-02-21T01:53:34;0.63;;;0.52;;
74158;SDS011;62511;47.970;11.774;2024-02-21T01:56:02;1.70;;;0.65;;
74158;SDS011;62511;47.970;11.774;2024-02-21T01:58:30;1.50;;;0.65;;
74158;SDS011;62511;47.970;11.774;2024-02-21T02:00:56;0.65;;;0.45;;
74158;SDS011;62511;47.970;11.774;2024-02-21T02:03:23;2.28;;;0.60;;
74158;SDS011;62511;47.970;11.774;2024-02-21T02:05:50;1.52;;;0.70;;
74158;SDS011;62511;47.970;11.774;2024-02-21T02:08:18;0.50;;;0.50;;
74158;SDS011;62511;47.970;11.774;2024-02-21T02:10:44;0.90;;;0.88;;
74158;SDS011;62511;47.970;11.774;2024-02-21T02:13:14;1.52;;;0.68;;
74158;SDS011;62511;47.970;11.774;2024-02-21T02:15:44;0.75;;;0.50;;
74158;SDS011;62511;47.970;11.774;2024-02-21T02:18:11;0.40;;;0.32;;
74158;SDS011;62511;47.970;11.774;2024-02-21T02:20:37;1.50;;;0.73;;
74158;SDS011;62511;47.970;11.774;2024-02-21T02:23:10;1.25;;;0.60;;
74158;SDS011;62511;47.970;11.774;2024-02-21T02:25:36;1.48;;;0.73;;
74158;SDS011;62511;47.970;11.774;2024-02-21T02:28:03;0.80;;;0.55;;
74158;SDS011;62511;47.970;11.774;2024-02-21T02:30:32;1.90;;;0.70;;
74158;SDS011;62511;47.970;11.774;2024-02-21T02:33:02;1.40;;;0.82;;
74158;SDS011;62511;47.970;11.774;2024-02-21T02:35:29;1.30;;;0.73;;
74158;SDS011;62511;47.970;11.774;2024-02-21T02:37:55;1.67;;;0.60;;
74158;SDS011;62511;47.970;11.774;2024-02-21T02:40:21;1.25;;;0.55;;
74158;SDS011;62511;47.970;11.774;2024-02-21T02:42:48;0.85;;;0.40;;
74158;SDS011;62511;47.970;11.774;2024-02-21T02:45:15;0.90;;;0.70;;
74158;SDS011;62511;47.970;11.774;2024-02-21T02:47:41;1.73;;;0.77;;
74158;SDS011;62511;47.970;11.774;2024-02-21T02:50:08;0.45;;;0.30;;
74158;SDS011;62511;47.970;11.774;2024-02-21T02:52:34;0.80;;;0.50;;
74158;SDS011;62511;47.970;11.774;2024-02-21T02:55:00;2.30;;;0.40;;
74158;SDS011;62511;47.970;11.774;2024-02-21T02:57:27;0.70;;;0.63;;
74158;SDS011;62511;47.970;11.774;2024-02-21T02:59:53;1.15;;;0.50;;
74158;SDS011;62511;47.970;11.774;2024-02-21T03:02:19;0.77;;;0.60;;
74158;SDS011;62511;47.970;11.774;2024-02-21T03:04:46;0.45;;;0.40;;
74158;SDS011;62511;47.970;11.774;2024-02-21T03:07:13;1.23;;;0.40;;
74158;SDS011;62511;47.970;11.774;2024-02-21T03:09:39;0.70;;;0.35;;
74158;SDS011;62511;47.970;11.774;2024-02-21T03:12:08;0.68;;;0.47;;
74158;SDS011;62511;47.970;11.774;2024-02-21T03:14:34;2.50;;;0.40;;
74158;SDS011;62511;47.970;11.774;2024-02-21T03:17:01;0.50;;;0.47;;
74158;SDS011;62511;47.970;11.774;2024-02-21T03:19:28;0.57;;;0.30;;
74158;SDS011;62511;47.970;11.774;2024-02-21T03:21:54;0.82;;;0.47;;
74158;SDS011;62511;47.970;11.774;2024-02-21T03:24:21;0.68;;;0.45;;
74158;SDS011;62511;47.970;11.774;2024-02-21T03:26:48;0.73;;;0.63;;
74158;SDS011;62511;47.970;11.774;2024-02-21T03:29:15;0.45;;;0.43;;
74158;SDS011;62511;47.970;11.774;2024-02-21T03:31:41;0.43;;;0.40;;
74158;SDS011;62511;47.970;11.774;2024-02-21T03:34:10;0.40;;;0.40;;
74158;SDS011;62511;47.970;11.774;2024-02-21T03:36:36;1.20;;;0.80;;
74158;SDS011;62511;47.970;11.774;2024-02-21T03:39:02;0.60;;;0.30;;
74158;SDS011;62511;47.970;11.774;2024-02-21T03:41:28;1.65;;;0.50;;
74158;SDS011;62511;47.970;11.774;2024-02-21T03:43:55;0.70;;;0.30;;
74158;SDS011;62511;47.970;11.774;2024-02-21T03:46:21;1.00;;;0.60;;
74158;SDS011;62511;47.970;11.774;2024-02-21T03:48:47;2.83;;;0.60;;
74158;SDS011;62511;47.970;11.774;2024-02-21T03:51:13;1.10;;;0.75;;
74158;SDS011;62511;47.970;11.774;2024-02-21T03:53:40;3.78;;;0.60;;
74158;SDS011;62511;47.970;11.774;2024-02-21T03:56:06;3.55;;;0.47;;
74158;SDS011;62511;47.970;11.774;2024-02-21T03:58:32;2.70;;;0.80;;
74158;SDS011;62511;47.970;11.774;2024-02-21T04:01:02;0.47;;;0.47;;
74158;SDS011;62511;47.970;11.774;2024-02-21T04:03:28;0.65;;;0.40;;
74158;SDS011;62511;47.970;11.774;2024-02-21T04:05:54;6.07;;;0.60;;
74158;SDS011;62511;47.970;11.774;2024-02-21T04:08:22;2.13;;;0.50;;
74158;SDS011;62511;47.970;11.774;2024-02-21T04:10:48;1.27;;;0.70;;
74158;SDS011;62511;47.970;11.774;2024-02-21T04:13:14;0.52;;;0.40;;
74158;SDS011;62511;47.970;11.774;2024-02-21T04:15:41;2.47;;;0.60;;
74158;SDS011;62511;47.970;11.774;2024-02-21T04:18:07;0.77;;;0.50;;
74158;SDS011;62511;47.970;11.774;2024-02-21T04:20:34;0.73;;;0.60;;
74158;SDS011;62511;47.970;11.774;2024-02-21T04:23:00;0.93;;;0.55;;
74158;SDS011;62511;47.970;11.774;2024-02-21T04:25:28;0.40;;;0.30;;
74158;SDS011;62511;47.970;11.774;2024-02-21T04:27:54;0.20;;;0.20;;
74158;SDS011;62511;47.970;11.774;2024-02-21T04:30:20;0.50;;;0.50;;
74158;SDS011;62511;47.970;11.774;2024-02-21T04:32:46;0.73;;;0.43;;
74158;SDS011;62511;47.970;11.774;2024-02-21T04:35:12;0.60;;;0.45;;
74158;SDS011;62511;47.970;11.774;2024-02-21T04:37:38;0.45;;;0.45;;
74158;SDS011;62511;47.970;11.774;2024-02-21T04:40:06;0.35;;;0.30;;
74158;SDS011;62511;47.970;11.774;2024-02-21T04:42:32;0.30;;;0.30;;
74158;SDS011;62511;47.970;11.774;2024-02-21T04:44:59;0.85;;;0.45;;
74158;SDS011;62511;47.970;11.774;2024-02-21T04:47:25;0.30;;;0.30;;
74158;SDS011;62511;47.970;11.774;2024-02-21T04:49:51;0.40;;;0.40;;
74158;SDS011;62511;47.970;11.774;2024-02-21T04:52:17;0.30;;;0.30;;
74158;SDS011;62511;47.970;11.774;2024-02-21T04:54:44;0.20;;;0.20;;
74158;SDS011;62511;47.970;11.774;2024-02-21T04:57:10;0.82;;;0.55;;
74158;SDS011;62511;47.970;11.774;2024-02-21T04:59:36;0.40;;;0.30;;
74158;SDS011;62511;47.970;11.774;2024-02-21T05:02:02;0.35;;;0.22;;
74158;SDS011;62511;47.970;11.774;2024-02-21T05:04:29;1.65;;;0.60;;
74158;SDS011;62511;47.970;11.774;2024-02-21T05:06:55;1.20;;;0.25;;
74158;SDS011;62511;47.970;11.774;2024-02-21T05:09:22;0.30;;;0.30;;
74158;SDS011;62511;47.970;11.774;2024-02-21T05:11:48;1.77;;;0.50;;
74158;SDS011;62511;47.970;11.774;2024-02-21T05:14:15;0.30;;;0.30;;
74158;SDS011;62511;47.970;11.774;2024-02-21T05:16:41;0.30;;;0.30;;
74158;SDS011;62511;47.970;11.774;2024-02-21T05:19:07;0.82;;;0.50;;
74158;SDS011;62511;47.970;11.774;2024-02-21T05:21:33;0.40;;;0.40;;
74158;SDS011;62511;47.970;11.774;2024-02-21T05:23:59;1.70;;;0.35;;
74158;SDS011;62511;47.970;11.774;2024-02-21T05:26:26;0.77;;;0.52;;
74158;SDS011;62511;47.970;11.774;2024-02-21T05:28:52;0.30;;;0.30;;
74158;SDS011;62511;47.970;11.774;2024-02-21T05:31:19;1.38;;;0.60;;
74158;SDS011;62511;47.970;11.774;2024-02-21T05:33:45;2.40;;;0.45;;
74158;SDS011;62511;47.970;11.774;2024-02-21T05:36:12;0.60;;;0.60;;
74158;SDS011;62511;47.970;11.774;2024-02-21T05:38:38;0.55;;;0.55;;
74158;SDS011;62511;47.970;11.774;2024-02-21T05:41:05;1.67;;;0.40;;
74158;SDS011;62511;47.970;11.774;2024-02-21T05:43:31;0.77;;;0.47;;
74158;SDS011;62511;47.970;11.774;2024-02-21T05:45:57;0.40;;;0.40;;
74158;SDS011;62511;47.970;11.774;2024-02-21T05:48:23;0.75;;;0.50;;
74158;SDS011;62511;47.970;11.774;2024-02-21T05:50:50;3.55;;;0.60;;
74158;SDS011;62511;47.970;11.774;2024-02-21T05:53:16;1.08;;;0.70;;
74158;SDS011;62511;47.970;11.774;2024-02-21T05:55:43;0.52;;;0.52;;
74158;SDS011;62511;47.970;11.774;2024-02-21T05:58:09;1.25;;;0.40;;
74158;SDS011;62511;47.970;11.774;2024-02-21T06:00:39;0.70;;;0.70;;
74158;SDS011;62511;47.970;11.774;2024-02-21T06:03:05;1.05;;;1.02;;
74158;SDS011;62511;47.970;11.774;2024-02-21T06:05:36;0.68;;;0.50;;
74158;SDS011;62511;47.970;11.774;2024-02-21T06:08:02;4.22;;;1.10;;
74158;SDS011;62511;47.970;11.774;2024-02-21T06:10:28;3.45;;;0.80;;
74158;SDS011;62511;47.970;11.774;2024-02-21T06:12:55;1.88;;;0.70;;
74158;SDS011;62511;47.970;11.774;2024-02-21T06:15:21;1.27;;;0.63;;
74158;SDS011;62511;47.970;11.774;2024-02-21T06:17:48;1.52;;;0.52;;
74158;SDS011;62511;47.970;11.774;2024-02-21T06:20:16;2.38;;;0.50;;
74158;SDS011;62511;47.970;11.774;2024-02-21T06:22:42;1.90;;;1.00;;
74158;SDS011;62511;47.970;11.774;2024-02-21T06:25:08;3.55;;;1.75;;
74158;SDS011;62511;47.970;11.774;2024-02-21T06:27:35;3.13;;;1.35;;
74158;SDS011;62511;47.970;11.774;2024-02-21T06:30:01;2.03;;;1.50;;
74158;SDS011;62511;47.970;11.774;2024-02-21T06:32:28;1.77;;;1.38;;
74158;SDS011;62511;47.970;11.774;2024-02-21T06:34:54;1.85;;;0.93;;
74158;SDS011;62511;47.970;11.774;2024-02-21T06:37:20;2.80;;;0.80;;
74158;SDS011;62511;47.970;11.774;2024-02-21T06:39:47;1.13;;;0.80;;
74158;SDS011;62511;47.970;11.774;2024-02-21T06:42:13;3.47;;;0.90;;
74158;SDS011;62511;47.970;11.774;2024-02-21T06:44:39;0.75;;;0.60;;
74158;SDS011;62511;47.970;11.774;2024-02-21T06:47:06;1.60;;;1.20;;
74158;SDS011;62511;47.970;11.774;2024-02-21T06:49:35;2.88;;;1.08;;
74158;SDS011;62511;47.970;11.774;2024-02-21T06:52:03;5.40;;;2.00;;
74158;SDS011;62511;47.970;11.774;2024-02-21T06:54:30;8.43;;;3.58;;
74158;SDS011;62511;47.970;11.774;2024-02-21T06:56:56;12.43;;;4.35;;
74158;SDS011;62511;47.970;11.774;2024-02-21T06:59:22;13.10;;;4.68;;
74158;SDS011;62511;47.970;11.774;2024-02-21T07:01:48;10.05;;;4.43;;
74158;SDS011;62511;47.970;11.774;2024-02-21T07:04:14;5.15;;;2.55;;
74158;SDS011;62511;47.970;11.774;2024-02-21T07:06:41;3.88;;;1.38;;
74158;SDS011;62511;47.970;11.774;2024-02-21T07:09:07;2.70;;;1.10;;
74158;SDS011;62511;47.970;11.774;2024-02-21T07:11:34;2.08;;;1.08;;
74158;SDS011;62511;47.970;11.774;2024-02-21T07:14:00;2.35;;;0.93;;
74158;SDS011;62511;47.970;11.774;2024-02-21T07:16:26;1.02;;;0.77;;
74158;SDS011;62511;47.970;11.774;2024-02-21T07:18:54;2.03;;;1.33;;
74158;SDS011;62511;47.970;11.774;2024-02-21T07:21:20;3.45;;;1.92;;
74158;SDS011;62511;47.970;11.774;2024-02-21T07:23:47;3.08;;;1.63;;
74158;SDS011;62511;47.970;11.774;2024-02-21T07:26:13;1.30;;;0.73;;
74158;SDS011;62511;47.970;11.774;2024-02-21T07:28:39;1.00;;;0.80;;
74158;SDS011;62511;47.970;11.774;2024-02-21T07:31:05;0.90;;;0.80;;
74158;SDS011;62511;47.970;11.774;2024-02-21T07:33:31;6.13;;;1.90;;
74158;SDS011;62511;47.970;11.774;2024-02-21T07:35:58;5.03;;;2.42;;
74158;SDS011;62511;47.970;11.774;2024-02-21T07:38:24;3.53;;;1.67;;
74158;SDS011;62511;47.970;11.774;2024-02-21T07:40:50;2.17;;;1.17;;
74158;SDS011;62511;47.970;11.774;2024-02-21T07:43:16;1.67;;;1.08;;
74158;SDS011;62511;47.970;11.774;2024-02-21T07:45:43;2.67;;;1.23;;
74158;SDS011;62511;47.970;11.774;2024-02-21T07:48:09;0.85;;;0.85;;
74158;SDS011;62511;47.970;11.774;2024-02-21T07:50:36;1.02;;;0.73;;
74158;SDS011;62511;47.970;11.774;2024-02-21T07:53:02;0.65;;;0.65;;
74158;SDS011;62511;47.970;11.774;2024-02-21T07:55:28;1.90;;;0.65;;
74158;SDS011;62511;47.970;11.774;2024-02-21T07:57:54;0.95;;;0.73;;
74158;SDS011;62511;47.970;11.774;2024-02-21T08:00:21;1.20;;;0.68;;
74158;SDS011;62511;47.970;11.774;2024-02-21T08:02:48;2.47;;;0.50;;
74158;SDS011;62511;47.970;11.774;2024-02-21T08:05:14;1.10;;;0.60;;
74158;SDS011;62511;47.970;11.774;2024-02-21T08:07:41;1.92;;;0.43;;
74158;SDS011;62511;47.970;11.774;2024-02-21T08:10:07;1.10;;;0.43;;
74158;SDS011;62511;47.970;11.774;2024-02-21T08:12:34;1.15;;;0.35;;
74158;SDS011;62511;47.970;11.774;2024-02-21T08:15:00;0.55;;;0.40;;
74158;SDS011;62511;47.970;11.774;2024-02-21T08:17:26;0.75;;;0.40;;
74158;SDS011;62511;47.970;11.774;2024-02-21T08:19:52;0.47;;;0.47;;
74158;SDS011;62511;47.970;11.774;2024-02-21T08:22:18;0.85;;;0.40;;
74158;SDS011;62511;47.970;11.774;2024-02-21T08:24:45;1.80;;;0.70;;
74158;SDS011;62511;47.970;11.774;2024-02-21T08:27:11;1.13;;;0.43;;
74158;SDS011;62511;47.970;11.774;2024-02-21T08:29:38;1.40;;;0.57;;
74158;SDS011;62511;47.970;11.774;2024-02-21T08:32:04;3.53;;;0.68;;
74158;SDS011;62511;47.970;11.774;2024-02-21T08:34:30;0.60;;;0.52;;
74158;SDS011;62511;47.970;11.774;2024-02-21T08:36:59;1.00;;;0.60;;
74158;SDS011;62511;47.970;11.774;2024-02-21T08:39:25;2.55;;;0.98;;
74158;SDS011;62511;47.970;11.774;2024-02-21T08:41:53;2.70;;;0.57;;
74158;SDS011;62511;47.970;11.774;2024-02-21T08:44:21;1.25;;;0.73;;
74158;SDS011;62511;47.970;11.774;2024-02-21T08:46:48;1.60;;;0.70;;
74158;SDS011;62511;47.970;11.774;2024-02-21T08:49:15;0.35;;;0.35;;
74158;SDS011;62511;47.970;11.774;2024-02-21T08:51:41;1.27;;;0.60;;
74158;SDS011;62511;47.970;11.774;2024-02-21T08:54:08;1.25;;;0.52;;
74158;SDS011;62511;47.970;11.774;2024-02-21T08:56:34;0.80;;;0.57;;
74158;SDS011;62511;47.970;11.774;2024-02-21T08:59:01;1.58;;;0.35;;
74158;SDS011;62511;47.970;11.774;2024-02-21T09:01:27;0.90;;;0.50;;
74158;SDS011;62511;47.970;11.774;2024-02-21T09:03:54;1.48;;;0.60;;
74158;SDS011;62511;47.970;11.774;2024-02-21T09:06:21;0.43;;;0.40;;
74158;SDS011;62511;47.970;11.774;2024-02-21T09:08:48;1.10;;;0.50;;
74158;SDS011;62511;47.970;11.774;2024-02-21T09:11:14;0.40;;;0.40;;
74158;SDS011;62511;47.970;11.774;2024-02-21T09:13:41;1.50;;;0.45;;
74158;SDS011;62511;47.970;11.774;2024-02-21T09:16:07;4.72;;;0.55;;
74158;SDS011;62511;47.970;11.774;2024-02-21T09:18:34;0.60;;;0.32;;
74158;SDS011;62511;47.970;11.774;2024-02-21T09:21:00;1.90;;;0.32;;
74158;SDS011;62511;47.970;11.774;2024-02-21T09:23:26;1.67;;;0.50;;
74158;SDS011;62511;47.970;11.774;2024-02-21T09:25:52;0.28;;;0.28;;
74158;SDS011;62511;47.970;11.774;2024-02-21T09:28:20;0.88;;;0.52;;
74158;SDS011;62511;47.970;11.774;2024-02-21T09:30:47;0.50;;;0.40;;
74158;SDS011;62511;47.970;11.774;2024-02-21T09:33:13;1.02;;;0.43;;
74158;SDS011;62511;47.970;11.774;2024-02-21T09:35:39;0.22;;;0.22;;
74158;SDS011;62511;47.970;11.774;2024-02-21T09:38:06;0.65;;;0.30;;
74158;SDS011;62511;47.970;11.774;2024-02-21T09:40:32;1.70;;;0.20;;
74158;SDS011;62511;47.970;11.774;2024-02-21T09:43:03;1.25;;;0.20;;
74158;SDS011;62511;47.970;11.774;2024-02-21T09:45:32;0.60;;;0.30;;
74158;SDS011;62511;47.970;11.774;2024-02-21T09:50:44;0.43;;;0.30;;
74158;SDS011;62511;47.970;11.774;2024-02-21T09:53:12;0.22;;;0.20;;
74158;SDS011;62511;47.970;11.774;2024-02-21T09:55:41;0.75;;;0.30;;
74158;SDS011;62511;47.970;11.774;2024-02-21T09:58:09;0.73;;;0.40;;
74158;SDS011;62511;47.970;11.774;2024-02-21T10:00:35;0.50;;;0.40;;
74158;SDS011;62511;47.970;11.774;2024-02-21T10:03:02;0.47;;;0.47;;
74158;SDS011;62511;47.970;11.774;2024-02-21T10:05:33;0.60;;;0.25;;
74158;SDS011;62511;47.970;11.774;2024-02-21T10:08:00;0.50;;;0.30;;
74158;SDS011;62511;47.970;11.774;2024-02-21T10:10:26;0.32;;;0.30;;
74158;SDS011;62511;47.970;11.774;2024-02-21T10:12:54;0.20;;;0.20;;
74158;SDS011;62511;47.970;11.774;2024-02-21T10:15:21;0.30;;;0.30;;
74158;SDS011;62511;47.970;11.774;2024-02-21T10:17:48;0.63;;;0.20;;
74158;SDS011;62511;47.970;11.774;2024-02-21T10:20:14;1.08;;;0.30;;
74158;SDS011;62511;47.970;11.774;2024-02-21T10:22:41;0.20;;;0.20;;
74158;SDS011;62511;47.970;11.774;2024-02-21T10:25:11;0.60;;;0.30;;
74158;SDS011;62511;47.970;11.774;2024-02-21T10:27:39;0.20;;;0.20;;
74158;SDS011;62511;47.970;11.774;2024-02-21T10:30:06;0.20;;;0.20;;
74158;SDS011;62511;47.970;11.774;2024-02-21T10:32:32;0.30;;;0.30;;
74158;SDS011;62511;47.970;11.774;2024-02-21T10:35:02;0.32;;;0.30;;
74158;SDS011;62511;47.970;11.774;2024-02-21T10:37:30;0.50;;;0.22;;
74158;SDS011;62511;47.970;11.774;2024-02-21T10:42:23;0.30;;;0.30;;
74158;SDS011;62511;47.970;11.774;2024-02-21T10:44:51;1.58;;;0.35;;
74158;SDS011;62511;47.970;11.774;2024-02-21T10:47:18;2.00;;;0.32;;
74158;SDS011;62511;47.970;11.774;2024-02-21T10:49:48;1.42;;;0.30;;
74158;SDS011;62511;47.970;11.774;2024-02-21T10:52:29;1.05;;;0.63;;
74158;SDS011;62511;47.970;11.774;2024-02-21T10:55:06;0.90;;;0.40;;
74158;SDS011;62511;47.970;11.774;2024-02-21T10:57:36;0.30;;;0.20;;
74158;SDS011;62511;47.970;11.774;2024-02-21T11:02:33;0.50;;;0.30;;
74158;SDS011;62511;47.970;11.774;2024-02-21T11:05:01;0.45;;;0.30;;
74158;SDS011;62511;47.970;11.774;2024-02-21T11:07:28;1.38;;;0.30;;
74158;SDS011;62511;47.970;11.774;2024-02-21T11:09:55;0.10;;;0.10;;
74158;SDS011;62511;47.970;11.774;2024-02-21T11:12:21;0.10;;;0.10;;
74158;SDS011;62511;47.970;11.774;2024-02-21T11:14:48;0.40;;;0.20;;
74158;SDS011;62511;47.970;11.774;2024-02-21T11:17:17;0.52;;;0.25;;
74158;SDS011;62511;47.970;11.774;2024-02-21T11:19:45;0.38;;;0.20;;
74158;SDS011;62511;47.970;11.774;2024-02-21T11:22:15;0.13;;;0.10;;
74158;SDS011;62511;47.970;11.774;2024-02-21T11:24:45;0.38;;;0.20;;
74158;SDS011;62511;47.970;11.774;2024-02-21T11:27:11;0.13;;;0.13;;
74158;SDS011;62511;47.970;11.774;2024-02-21T11:29:44;0.20;;;0.20;;
74158;SDS011;62511;47.970;11.774;2024-02-21T11:32:14;0.30;;;0.20;;
74158;SDS011;62511;47.970;11.774;2024-02-21T11:34:41;0.20;;;0.20;;
74158;SDS011;62511;47.970;11.774;2024-02-21T11:37:14;1.02;;;0.15;;
74158;SDS011;62511;47.970;11.774;2024-02-21T11:39:43;0.45;;;0.32;;
74158;SDS011;62511;47.970;11.774;2024-02-21T11:42:09;0.45;;;0.45;;
74158;SDS011;62511;47.970;11.774;2024-02-21T11:44:37;0.63;;;0.32;;
74158;SDS011;62511;47.970;11.774;2024-02-21T11:47:05;0.68;;;0.30;;
74158;SDS011;62511;47.970;11.774;2024-02-21T11:49:38;0.70;;;0.20;;
74158;SDS011;62511;47.970;11.774;2024-02-21T11:52:05;0.20;;;0.20;;
74158;SDS011;62511;47.970;11.774;2024-02-21T11:56:58;0.40;;;0.20;;
74158;SDS011;62511;47.970;11.774;2024-02-21T11:59:24;1.02;;;0.30;;
74158;SDS011;62511;47.970;11.774;2024-02-21T12:01:50;0.45;;;0.20;;
74158;SDS011;62511;47.970;11.774;2024-02-21T12:04:17;0.55;;;0.10;;
74158;SDS011;62511;47.970;11.774;2024-02-21T12:06:44;1.63;;;0.20;;
74158;SDS011;62511;47.970;11.774;2024-02-21T12:09:13;0.28;;;0.20;;
74158;SDS011;62511;47.970;11.774;2024-02-21T12:11:41;0.00;;;0.00;;
74158;SDS011;62511;47.970;11.774;2024-02-21T12:14:07;0.20;;;0.10;;
74158;SDS011;62511;47.970;11.774;2024-02-21T12:16:34;4.95;;;0.40;;
74158;SDS011;62511;47.970;11.774;2024-02-21T12:19:02;3.50;;;0.28;;
74158;SDS011;62511;47.970;11.774;2024-02-21T12:21:34;0.10;;;0.10;;
74158;SDS011;62511;47.970;11.774;2024-02-21T12:24:22;0.05;;;0.05;;
74158;SDS011;62511;47.970;11.774;2024-02-21T12:26:49;2.80;;;0.10;;
74158;SDS011;62511;47.970;11.774;2024-02-21T12:29:15;0.10;;;0.10;;
74158;SDS011;62511;47.970;11.774;2024-02-21T12:31:41;0.32;;;0.20;;
74158;SDS011;62511;47.970;11.774;2024-02-21T12:34:07;1.33;;;0.95;;
74158;SDS011;62511;47.970;11.774;2024-02-21T12:36:35;0.52;;;0.40;;
74158;SDS011;62511;47.970;11.774;2024-02-21T12:39:02;0.40;;;0.40;;
74158;SDS011;62511;47.970;11.774;2024-02-21T12:41:29;0.35;;;0.10;;
74158;SDS011;62511;47.970;11.774;2024-02-21T12:43:57;0.35;;;0.28;;
74158;SDS011;62511;47.970;11.774;2024-02-21T12:46:23;0.32;;;0.30;;
74158;SDS011;62511;47.970;11.774;2024-02-21T12:48:50;0.28;;;0.15;;
74158;SDS011;62511;47.970;11.774;2024-02-21T12:51:16;0.10;;;0.10;;
74158;SDS011;62511;47.970;11.774;2024-02-21T12:53:47;0.47;;;0.30;;
74158;SDS011;62511;47.970;11.774;2024-02-21T12:56:15;0.20;;;0.10;;
74158;SDS011;62511;47.970;11.774;2024-02-21T13:01:07;1.63;;;0.20;;
74158;SDS011;62511;47.970;11.774;2024-02-21T13:03:34;3.20;;;0.20;;
74158;SDS011;62511;47.970;11.774;2024-02-21T13:06:00;0.30;;;0.10;;
74158;SDS011;62511;47.970;11.774;2024-02-21T13:08:26;0.10;;;0.10;;
74158;SDS011;62511;47.970;11.774;2024-02-21T13:10:52;0.00;;;0.00;;
74158;SDS011;62511;47.970;11.774;2024-02-21T13:13:19;0.45;;;0.10;;
74158;SDS011;62511;47.970;11.774;2024-02-21T13:15:45;0.43;;;0.10;;
74158;SDS011;62511;47.970;11.774;2024-02-21T13:18:11;0.10;;;0.10;;
74158;SDS011;62511;47.970;11.774;2024-02-21T13:20:37;0.05;;;0.05;;
74158;SDS011;62511;47.970;11.774;2024-02-21T13:23:04;0.93;;;0.15;;
74158;SDS011;62511;47.970;11.774;2024-02-21T13:25:30;0.47;;;0.30;;
74158;SDS011;62511;47.970;11.774;2024-02-21T13:27:56;0.17;;;0.17;;
74158;SDS011;62511;47.970;11.774;2024-02-21T13:30:22;0.20;;;0.20;;
74158;SDS011;62511;47.970;11.774;2024-02-21T13:32:50;0.10;;;0.10;;
74158;SDS011;62511;47.970;11.774;2024-02-21T13:35:16;0.20;;;0.15;;
74158;SDS011;62511;47.970;11.774;2024-02-21T13:37:42;0.10;;;0.10;;
74158;SDS011;62511;47.970;11.774;2024-02-21T13:40:09;0.28;;;0.20;;
74158;SDS011;62511;47.970;11.774;2024-02-21T13:42:35;0.43;;;0.20;;
74158;SDS011;62511;47.970;11.774;2024-02-21T13:45:02;0.20;;;0.10;;
74158;SDS011;62511;47.970;11.774;2024-02-21T13:47:28;0.20;;;0.20;;
74158;SDS011;62511;47.970;11.774;2024-02-21T13:49:55;0.25;;;0.20;;
74158;SDS011;62511;47.970;11.774;2024-02-21T13:52:21;0.32;;;0.20;;
74158;SDS011;62511;47.970;11.774;2024-02-21T13:54:48;0.40;;;0.20;;
74158;SDS011;62511;47.970;11.774;2024-02-21T13:57:14;0.20;;;0.10;;
74158;SDS011;62511;47.970;11.774;2024-02-21T13:59:40;0.10;;;0.10;;
74158;SDS011;62511;47.970;11.774;2024-02-21T14:02:07;0.40;;;0.20;;
74158;SDS011;62511;47.970;11.774;2024-02-21T14:04:34;0.17;;;0.17;;
74158;SDS011;62511;47.970;11.774;2024-02-21T14:07:00;0.22;;;0.22;;
74158;SDS011;62511;47.970;11.774;2024-02-21T14:09:27;4.13;;;0.30;;
74158;SDS011;62511;47.970;11.774;2024-02-21T14:11:58;1.13;;;0.30;;
74158;SDS011;62511;47.970;11.774;2024-02-21T14:14:24;2.75;;;0.30;;
74158;SDS011;62511;47.970;11.774;2024-02-21T14:16:50;0.30;;;0.30;;
74158;SDS011;62511;47.970;11.774;2024-02-21T14:19:17;0.73;;;0.30;;
74158;SDS011;62511;47.970;11.774;2024-02-21T14:24:10;0.55;;;0.22;;
74158;SDS011;62511;47.970;11.774;2024-02-21T14:26:37;0.30;;;0.30;;
74158;SDS011;62511;47.970;11.774;2024-02-21T14:29:06;0.63;;;0.38;;
74158;SDS011;62511;47.970;11.774;2024-02-21T14:31:32;0.77;;;0.35;;
74158;SDS011;62511;47.970;11.774;2024-02-21T14:33:58;1.05;;;0.35;;
74158;SDS011;62511;47.970;11.774;2024-02-21T14:36:26;1.35;;;0.60;;
74158;SDS011;62511;47.970;11.774;2024-02-21T14:38:52;0.85;;;0.25;;
74158;SDS011;62511;47.970;11.774;2024-02-21T14:41:19;0.25;;;0.25;;
74158;SDS011;62511;47.970;11.774;2024-02-21T14:43:45;0.63;;;0.30;;
74158;SDS011;62511;47.970;11.774;2024-02-21T14:46:12;0.25;;;0.25;;